createdAt,value
2022-11-15T00:00:06.868Z,100944.84
2022-11-15T00:03:08.561Z,100947.00
2022-11-15T00:06:10.604Z,100939.28
2022-11-15T00:09:12.263Z,100941.75
2022-11-15T00:12:13.969Z,100930.03
2022-11-15T00:15:15.758Z,100937.78
2022-11-15T00:18:18.023Z,100945.16
2022-11-15T00:21:19.775Z,100933.28
2022-11-15T00:24:21.494Z,100932.50
2022-11-15T00:27:23.121Z,100931.41
2022-11-15T00:30:25.511Z,100935.56
2022-11-15T00:33:27.224Z,100929.31
2022-11-15T00:36:28.974Z,100936.16
2022-11-15T00:39:30.666Z,100933.56
2022-11-15T00:42:32.361Z,100932.66
2022-11-15T00:45:34.117Z,100927.63
2022-11-15T00:48:35.994Z,100916.31
2022-11-15T00:51:37.747Z,100921.78
2022-11-15T00:54:39.456Z,100927.31
2022-11-15T00:57:41.201Z,100925.34
2022-11-15T01:00:42.858Z,100918.59
2022-11-15T01:03:44.876Z,100905.47
2022-11-15T01:06:46.460Z,100909.34
2022-11-15T01:09:48.096Z,100910.69
2022-11-15T01:12:50.495Z,100906.53
2022-11-15T01:15:52.097Z,100899.75
2022-11-15T01:18:53.679Z,100896.22
2022-11-15T01:21:55.328Z,100899.69
2022-11-15T01:24:56.925Z,100901.81
2022-11-15T01:27:58.485Z,100892.31
2022-11-15T01:31:05.339Z,100887.81
2022-11-15T01:34:06.970Z,100890.06
2022-11-15T01:37:08.610Z,100896.72
2022-11-15T01:40:10.598Z,100888.88
2022-11-15T01:43:30.988Z,100891.28
2022-11-15T01:46:36.445Z,100883.84
2022-11-15T01:49:41.919Z,100886.44
2022-11-15T01:52:44.005Z,100878.13
2022-11-15T01:55:45.739Z,100885.81
2022-11-15T01:58:47.723Z,100883.97
2022-11-15T02:01:49.379Z,100881.22
2022-11-15T02:04:51.073Z,100871.25
2022-11-15T02:07:52.847Z,100866.50
2022-11-15T02:10:54.448Z,100857.37
2022-11-15T02:13:58.886Z,100864.50
2022-11-15T02:17:22.876Z,100862.22
2022-11-15T02:20:47.361Z,100855.78
2022-11-15T02:24:07.669Z,100861.50
2022-11-15T02:27:24.390Z,100857.75
2022-11-15T02:30:55.507Z,100858.91
2022-11-15T02:34:31.158Z,100859.19
2022-11-15T02:38:02.781Z,100856.19
2022-11-15T02:41:09.925Z,100850.06
2022-11-15T02:44:21.159Z,100852.94
2022-11-15T02:47:25.635Z,100855.75
2022-11-15T02:50:30.444Z,100846.81
2022-11-15T02:53:32.364Z,100847.56
2022-11-15T02:56:34.636Z,100839.53
2022-11-15T02:59:42.390Z,100853.03
2022-11-15T03:02:59.963Z,100846.78
2022-11-15T03:06:33.777Z,100846.66
2022-11-15T03:09:43.537Z,100839.28
2022-11-15T03:12:54.990Z,100839.06
2022-11-15T03:16:05.445Z,100838.84
2022-11-15T03:19:29.890Z,100840.53
2022-11-15T03:22:36.930Z,100842.81
2022-11-15T03:25:43.957Z,100836.25
2022-11-15T03:28:53.514Z,100835.59
2022-11-15T03:32:07.563Z,100827.63
2022-11-15T03:35:12.853Z,100844.41
2022-11-15T03:38:24.689Z,100835.59
2022-11-15T03:41:36.237Z,100820.06
2022-11-15T03:45:02.570Z,100826.44
2022-11-15T03:48:14.616Z,100823.94
2022-11-15T03:51:16.777Z,100819.84
2022-11-15T03:54:18.668Z,100838.06
2022-11-15T03:57:20.489Z,100819.91
2022-11-15T04:00:22.249Z,100811.25
2022-11-15T04:03:23.864Z,100805.50
2022-11-15T04:06:25.470Z,100798.94
2022-11-15T04:09:27.057Z,100788.28
2022-11-15T04:12:32.119Z,100784.34
2022-11-15T04:15:34.333Z,100799.03
2022-11-15T04:18:35.899Z,100790.25
2022-11-15T04:21:56.037Z,100787.06
2022-11-15T04:24:57.586Z,100789.53
2022-11-15T04:27:59.209Z,100775.84
2022-11-15T04:31:01.032Z,100775.19
2022-11-15T04:34:02.643Z,100766.91
2022-11-15T04:37:13.155Z,100759.19
2022-11-15T04:40:14.761Z,100762.44
2022-11-15T04:43:16.515Z,100770.69
2022-11-15T04:46:18.397Z,100763.41
2022-11-15T04:49:19.962Z,100771.09
2022-11-15T04:52:21.589Z,100770.88
2022-11-15T04:55:23.505Z,100763.53
2022-11-15T04:58:25.106Z,100759.28
2022-11-15T05:01:26.856Z,100764.97
2022-11-15T05:04:28.503Z,100769.41
2022-11-15T05:07:30.157Z,100772.25
2022-11-15T05:10:55.962Z,100767.44
2022-11-15T05:13:57.704Z,100767.44
2022-11-15T05:16:59.272Z,100766.66
2022-11-15T05:20:01.464Z,100755.44
2022-11-15T05:23:03.090Z,100759.37
2022-11-15T05:26:09.149Z,100758.53
2022-11-15T05:29:12.155Z,100759.09
2022-11-15T05:32:14.294Z,100749.37
2022-11-15T05:35:26.580Z,100760.91
2022-11-15T05:38:29.208Z,100768.03
2022-11-15T05:41:36.661Z,100776.06
2022-11-15T05:44:42.607Z,100776.00
2022-11-15T05:47:45.181Z,100763.75
2022-11-15T05:50:48.692Z,100758.53
2022-11-15T05:53:52.407Z,100740.03
2022-11-15T05:56:55.982Z,100750.47
2022-11-15T05:59:57.849Z,100743.94
2022-11-15T06:03:17.027Z,100724.38
2022-11-15T06:06:18.604Z,100719.53
2022-11-15T06:09:20.306Z,100732.34
2022-11-15T06:12:21.943Z,100713.66
2022-11-15T06:15:23.553Z,100710.31
2022-11-15T06:18:37.600Z,100723.28
2022-11-15T06:21:39.232Z,100722.03
2022-11-15T06:24:52.956Z,100719.41
2022-11-15T06:28:07.166Z,100718.34
2022-11-15T06:31:20.840Z,100723.69
2022-11-15T06:34:22.419Z,100735.50
2022-11-15T06:37:24.075Z,100740.91
2022-11-15T06:40:39.351Z,100738.13
2022-11-15T06:43:53.015Z,100756.06
2022-11-15T06:46:55.067Z,100751.87
2022-11-15T06:49:56.677Z,100756.16
2022-11-15T06:53:10.196Z,100756.09
2022-11-15T06:56:23.994Z,100750.44
2022-11-15T06:59:40.651Z,100756.03
2022-11-15T07:02:51.992Z,100769.19
2022-11-15T07:06:07.791Z,100760.97
2022-11-15T07:09:20.023Z,100766.47
2022-11-15T07:12:33.679Z,100764.69
2022-11-15T07:15:47.075Z,100766.41
2022-11-15T07:18:48.687Z,100775.22
2022-11-15T07:22:02.006Z,100774.34
2022-11-15T07:25:16.111Z,100764.34
2022-11-15T07:28:17.827Z,100761.78
2022-11-15T07:31:31.096Z,100763.91
2022-11-15T07:34:43.952Z,100763.03
2022-11-15T07:37:45.523Z,100748.22
2022-11-15T07:40:48.006Z,100746.00
2022-11-15T07:43:53.639Z,100742.69
2022-11-15T07:46:55.252Z,100727.97
2022-11-15T07:49:56.872Z,100732.09
2022-11-15T07:53:11.741Z,100725.19
2022-11-15T07:56:13.695Z,100729.66
2022-11-15T07:59:15.274Z,100727.47
2022-11-15T08:02:18.916Z,100732.66
2022-11-15T08:05:20.687Z,100714.66
2022-11-15T08:08:22.273Z,100718.94
2022-11-15T08:11:23.854Z,100710.66
2022-11-15T08:14:25.467Z,100709.66
2022-11-15T08:17:27.492Z,100706.84
2022-11-15T08:20:33.405Z,100702.00
2022-11-15T08:23:35.195Z,100703.25
2022-11-15T08:26:37.112Z,100694.13
2022-11-15T08:29:38.660Z,100693.34
2022-11-15T08:32:40.341Z,100686.97
2022-11-15T08:35:43.345Z,100690.97
2022-11-15T08:38:45.016Z,100695.38
2022-11-15T08:41:46.613Z,100692.81
2022-11-15T08:44:48.189Z,100700.94
2022-11-15T08:47:54.244Z,100692.28
2022-11-15T08:50:57.405Z,100701.25
2022-11-15T08:53:59.113Z,100699.53
2022-11-15T08:57:00.684Z,100694.44
2022-11-15T09:00:02.389Z,100685.91
2022-11-15T09:03:08.105Z,100680.00
2022-11-15T09:06:10.215Z,100680.91
2022-11-15T09:09:11.797Z,100677.97
2022-11-15T09:12:13.443Z,100684.28
2022-11-15T09:15:17.056Z,100672.22
2022-11-15T09:18:18.606Z,100676.91
2022-11-15T09:21:20.235Z,100682.62
2022-11-15T09:24:21.979Z,100672.47
2022-11-15T09:27:23.702Z,100673.09
2022-11-15T09:30:26.427Z,100668.47
2022-11-15T09:33:29.090Z,100668.63
2022-11-15T09:36:31.010Z,100665.75
2022-11-15T09:39:32.620Z,100647.91
2022-11-15T09:43:06.036Z,100646.87
2022-11-15T09:46:26.357Z,100640.56
2022-11-15T09:49:30.573Z,100638.13
2022-11-15T09:52:32.142Z,100636.13
2022-11-15T09:55:46.047Z,100633.16
2022-11-15T09:58:59.755Z,100631.22
2022-11-15T10:02:22.713Z,100615.38
2022-11-15T10:05:26.369Z,100623.16
2022-11-15T10:08:55.976Z,100619.97
2022-11-15T10:11:57.752Z,100613.47
2022-11-15T10:15:06.282Z,100604.34
2022-11-15T10:18:29.488Z,100605.97
2022-11-15T10:21:51.614Z,100594.53
2022-11-15T10:25:02.287Z,100590.19
2022-11-15T10:28:30.346Z,100589.22
2022-11-15T10:31:32.275Z,100583.69
2022-11-15T10:34:37.125Z,100585.41
2022-11-15T10:37:38.736Z,100578.97
2022-11-15T10:40:42.432Z,100578.63
2022-11-15T10:43:44.329Z,100576.88
2022-11-15T10:46:49.724Z,100571.66
2022-11-15T10:50:04.045Z,100566.25
2022-11-15T10:53:21.340Z,100561.22
2022-11-15T10:56:25.637Z,100558.22
2022-11-15T10:59:33.678Z,100551.88
2022-11-15T11:02:43.649Z,100543.34
2022-11-15T11:05:45.224Z,100531.84
2022-11-15T11:08:58.760Z,100520.03
2022-11-15T11:12:01.562Z,100531.38
2022-11-15T11:15:12.937Z,100534.50
2022-11-15T11:18:29.469Z,100528.84
2022-11-15T11:21:42.198Z,100532.63
2022-11-15T11:25:02.519Z,100530.75
2022-11-15T11:28:07.355Z,100532.13
2022-11-15T11:31:36.307Z,100531.59
2022-11-15T11:35:00.176Z,100522.50
2022-11-15T11:38:31.228Z,100520.50
2022-11-15T11:41:40.900Z,100513.91
2022-11-15T11:45:11.040Z,100511.81
2022-11-15T11:48:27.240Z,100501.44
2022-11-15T11:51:35.447Z,100494.72
2022-11-15T11:54:43.171Z,100495.94
2022-11-15T11:57:59.970Z,100496.38
2022-11-15T12:01:17.136Z,100486.94
2022-11-15T12:04:37.757Z,100484.63
2022-11-15T12:07:41.163Z,100476.69
2022-11-15T12:10:49.891Z,100473.12
2022-11-15T12:13:58.165Z,100464.16
2022-11-15T12:17:00.378Z,100457.44
2022-11-15T12:20:16.401Z,100463.78
2022-11-15T12:23:24.098Z,100468.00
2022-11-15T12:26:36.236Z,100453.81
2022-11-15T12:29:42.697Z,100444.28
2022-11-15T12:33:39.950Z,100440.16
2022-11-15T12:36:44.473Z,100425.34
2022-11-15T12:40:05.232Z,100412.41
2022-11-15T12:43:09.611Z,100406.47
2022-11-15T12:46:22.584Z,100405.09
2022-11-15T12:49:24.100Z,100406.22
2022-11-15T12:52:25.742Z,100401.97
2022-11-15T12:55:33.397Z,100398.38
2022-11-15T12:58:48.418Z,100396.69
2022-11-15T13:01:51.409Z,100396.09
2022-11-15T13:04:56.627Z,100399.78
2022-11-15T13:07:59.844Z,100401.22
2022-11-15T13:11:40.045Z,100398.41
2022-11-15T13:14:50.679Z,100396.63
2022-11-15T13:17:57.095Z,100399.69
2022-11-15T13:21:02.358Z,100402.69
2022-11-15T13:24:05.352Z,100382.13
2022-11-15T13:27:20.416Z,100384.44
2022-11-15T13:30:25.045Z,100391.31
2022-11-15T13:33:35.979Z,100383.88
2022-11-15T13:36:38.110Z,100390.09
2022-11-15T13:39:39.737Z,100381.72
2022-11-15T13:42:45.587Z,100379.91
2022-11-15T13:46:08.970Z,100364.44
2022-11-15T13:49:13.866Z,100365.59
2022-11-15T13:52:18.004Z,100363.34
2022-11-15T13:55:23.897Z,100352.09
2022-11-15T13:58:25.669Z,100351.09
2022-11-15T14:01:32.352Z,100345.13
2022-11-15T14:04:35.272Z,100353.28
2022-11-15T14:07:43.268Z,100355.84
2022-11-15T14:10:45.965Z,100345.00
2022-11-15T14:14:16.666Z,100341.19
2022-11-15T14:17:33.835Z,100341.28
2022-11-15T14:20:39.024Z,100331.50
2022-11-15T14:23:40.995Z,100323.22
2022-11-15T14:26:43.253Z,100327.03
2022-11-15T14:29:44.850Z,100326.81
2022-11-15T14:32:48.958Z,100322.31
2022-11-15T14:35:54.114Z,100316.66
2022-11-15T14:38:56.069Z,100307.84
2022-11-15T14:41:57.644Z,100300.38
2022-11-15T14:44:59.551Z,100294.63
2022-11-15T14:48:01.120Z,100283.72
2022-11-15T14:51:02.691Z,100278.28
2022-11-15T14:54:04.261Z,100274.66
2022-11-15T14:57:05.784Z,100281.53
2022-11-15T15:00:09.804Z,100284.03
2022-11-15T15:03:11.474Z,100295.78
2022-11-15T15:06:18.065Z,100286.81
2022-11-15T15:09:20.158Z,100280.19
2022-11-15T15:12:24.282Z,100281.41
2022-11-15T15:15:31.083Z,100279.38
2022-11-15T15:18:32.992Z,100272.94
2022-11-15T15:21:37.615Z,100273.69
2022-11-15T15:24:39.378Z,100269.94
2022-11-15T15:27:40.950Z,100269.91
2022-11-15T15:30:42.599Z,100265.47
2022-11-15T15:33:44.869Z,100261.28
2022-11-15T15:36:46.428Z,100261.44
2022-11-15T15:39:48.008Z,100268.63
2022-11-15T15:42:50.193Z,100277.72
2022-11-15T15:45:51.849Z,100276.91
2022-11-15T15:48:53.400Z,100269.16
2022-11-15T15:51:55.010Z,100272.84
2022-11-15T15:54:56.692Z,100262.06
2022-11-15T15:57:58.636Z,100250.41
2022-11-15T16:01:00.314Z,100257.81
2022-11-15T16:04:01.974Z,100254.91
2022-11-15T16:07:04.916Z,100257.69
2022-11-15T16:10:26.736Z,100251.53
2022-11-15T16:13:28.331Z,100240.41
2022-11-15T16:16:29.932Z,100233.56
2022-11-15T16:19:31.550Z,100229.09
2022-11-15T16:22:33.120Z,100225.72
2022-11-15T16:25:40.842Z,100230.87
2022-11-15T16:28:42.424Z,100235.09
2022-11-15T16:31:43.997Z,100233.94
2022-11-15T16:34:49.069Z,100245.72
2022-11-15T16:37:51.377Z,100239.34
2022-11-15T16:40:52.966Z,100249.31
2022-11-15T16:43:54.518Z,100243.41
2022-11-15T16:46:56.418Z,100251.41
2022-11-15T16:49:58.082Z,100244.00
2022-11-15T16:53:00.125Z,100244.69
2022-11-15T16:56:02.059Z,100243.06
2022-11-15T16:59:03.877Z,100244.03
2022-11-15T17:02:12.353Z,100240.53
2022-11-15T17:05:19.920Z,100236.13
2022-11-15T17:08:22.628Z,100243.31
2022-11-15T17:11:24.496Z,100233.22
2022-11-15T17:14:26.542Z,100227.84
2022-11-15T17:17:31.344Z,100223.59
2022-11-15T17:20:33.359Z,100229.22
2022-11-15T17:23:35.067Z,100218.03
2022-11-15T17:26:40.819Z,100208.81
2022-11-15T17:29:43.049Z,100207.28
2022-11-15T17:32:45.082Z,100204.22
2022-11-15T17:35:46.975Z,100198.66
2022-11-15T17:38:56.695Z,100196.59
2022-11-15T17:42:00.793Z,100195.31
2022-11-15T17:45:08.112Z,100188.19
2022-11-15T17:48:11.396Z,100186.03
2022-11-15T17:51:16.265Z,100180.75
2022-11-15T17:54:18.235Z,100179.50
2022-11-15T17:57:19.897Z,100174.31
2022-11-15T18:00:23.211Z,100170.16
2022-11-15T18:03:24.960Z,100174.31
2022-11-15T18:06:28.618Z,100185.78
2022-11-15T18:09:30.901Z,100176.00
2022-11-15T18:12:33.781Z,100177.22
2022-11-15T18:15:35.685Z,100172.47
2022-11-15T18:18:37.872Z,100171.06
2022-11-15T18:21:57.088Z,100162.75
2022-11-15T18:24:59.184Z,100156.03
2022-11-15T18:28:01.224Z,100154.19
2022-11-15T18:31:05.085Z,100156.19
2022-11-15T18:34:07.092Z,100153.72
2022-11-15T18:37:09.529Z,100155.22
2022-11-15T18:40:11.390Z,100152.16
2022-11-15T18:43:12.979Z,100144.91
2022-11-15T18:46:17.460Z,100142.97
2022-11-15T18:49:20.449Z,100138.59
2022-11-15T18:52:22.655Z,100140.28
2022-11-15T18:55:24.424Z,100140.00
2022-11-15T18:58:29.517Z,100138.50
2022-11-15T19:01:34.616Z,100132.34
2022-11-15T19:04:36.326Z,100131.13
2022-11-15T19:07:38.437Z,100129.91
2022-11-15T19:10:40.461Z,100135.09
2022-11-15T19:13:43.251Z,100120.28
2022-11-15T19:16:52.594Z,100125.19
2022-11-15T19:19:57.400Z,100118.28
2022-11-15T19:22:59.333Z,100120.56
2022-11-15T19:26:02.654Z,100118.28
2022-11-15T19:29:06.354Z,100110.25
2022-11-15T19:32:08.407Z,100109.44
2022-11-15T19:35:10.152Z,100113.84
2022-11-15T19:38:12.139Z,100118.03
2022-11-15T19:41:25.866Z,100110.06
2022-11-15T19:44:28.752Z,100110.19
2022-11-15T19:47:30.745Z,100110.63
2022-11-15T19:50:32.720Z,100104.81
2022-11-15T19:53:34.976Z,100103.62
2022-11-15T19:56:38.297Z,100111.31
2022-11-15T19:59:40.285Z,100100.97
2022-11-15T20:02:41.952Z,100095.22
2022-11-15T20:05:44.479Z,100090.22
2022-11-15T20:08:48.095Z,100075.31
2022-11-15T20:11:49.733Z,100083.22
2022-11-15T20:14:51.456Z,100074.47
2022-11-15T20:17:53.330Z,100074.31
2022-11-15T20:20:56.719Z,100065.47
2022-11-15T20:23:58.399Z,100058.44
2022-11-15T20:27:00.114Z,100065.03
2022-11-15T20:30:02.066Z,100059.38
2022-11-15T20:33:03.986Z,100054.09
2022-11-15T20:36:07.805Z,100050.97
2022-11-15T20:39:09.484Z,100058.16
2022-11-15T20:42:11.607Z,100047.00
2022-11-15T20:45:13.561Z,100057.84
2022-11-15T20:48:16.067Z,100051.34
2022-11-15T20:51:19.244Z,100043.66
2022-11-15T20:54:20.916Z,100039.00
2022-11-15T20:57:22.493Z,100030.56
2022-11-15T21:00:26.100Z,100025.22
2022-11-15T21:03:28.056Z,100025.72
2022-11-15T21:06:29.820Z,100032.03
2022-11-15T21:09:49.881Z,100031.28
2022-11-15T21:12:52.020Z,100030.09
2022-11-15T21:15:58.084Z,100024.88
2022-11-15T21:18:59.921Z,100020.59
2022-11-15T21:22:02.703Z,100017.31
2022-11-15T21:25:04.834Z,100008.88
2022-11-15T21:28:06.538Z,100000.28
2022-11-15T21:31:08.941Z,99998.16
2022-11-15T21:34:10.782Z,99991.19
2022-11-15T21:37:12.644Z,99996.50
2022-11-15T21:40:14.221Z,99991.22
2022-11-15T21:43:15.788Z,99997.38
2022-11-15T21:46:17.724Z,99998.63
2022-11-15T21:49:20.843Z,99998.75
2022-11-15T21:52:22.441Z,99987.19
2022-11-15T21:55:24.089Z,99987.91
2022-11-15T21:58:25.804Z,99979.34
2022-11-15T22:01:47.390Z,99978.53
2022-11-15T22:04:48.971Z,99972.22
2022-11-15T22:07:50.554Z,99980.13
2022-11-15T22:10:53.039Z,99976.75
2022-11-15T22:13:54.875Z,99976.75
2022-11-15T22:16:56.462Z,99969.75
2022-11-15T22:19:58.043Z,99967.06
2022-11-15T22:22:59.994Z,99958.47
2022-11-15T22:26:02.219Z,99937.22
2022-11-15T22:29:03.822Z,99946.50
2022-11-15T22:32:05.510Z,99948.91
2022-11-15T22:35:07.857Z,99952.25
2022-11-15T22:38:10.225Z,99949.41
2022-11-15T22:41:11.918Z,99944.72
2022-11-15T22:44:13.523Z,99945.44
2022-11-15T22:47:15.105Z,99947.37
2022-11-15T22:50:17.141Z,99934.59
2022-11-15T22:53:19.593Z,99936.50
2022-11-15T22:56:21.155Z,99925.56
2022-11-15T22:59:22.741Z,99929.53
2022-11-15T23:02:26.611Z,99915.94
2022-11-15T23:05:28.249Z,99917.28
2022-11-15T23:08:30.208Z,99909.09
2022-11-15T23:11:50.328Z,99922.59
2022-11-15T23:14:51.893Z,99915.28
2022-11-15T23:17:53.469Z,99892.41
2022-11-15T23:20:55.539Z,99891.63
2022-11-15T23:23:57.114Z,99890.09
2022-11-15T23:27:04.680Z,99885.72
2022-11-15T23:30:25.142Z,99877.50
2022-11-15T23:33:45.419Z,99864.59
2022-11-15T23:36:47.123Z,99864.59
2022-11-15T23:39:48.702Z,99872.88
2022-11-15T23:42:50.427Z,99870.72
2022-11-15T23:45:52.100Z,99879.06
2022-11-15T23:48:53.735Z,99874.06
2022-11-15T23:51:55.387Z,99868.12
2022-11-15T23:54:56.982Z,99856.41
2022-11-15T23:57:58.566Z,99858.22
